Time;durP1;ratioP1;P1;durP2;ratioP2;P2;SDS_P1;SDS_P2;PMS_P1;PMS_P2;Temp;Humidity;BMP_temperature;BMP_pressure;BME280_temperature;BME280_humidity;BME280_pressure;Samples;Min_cycle;Max_cycle;Signal;HPM_P1;HPM_P2
2022/03/02 00:01:36;;;;;;;114.05;30.55;;;8.10;76.70;;;;;;5020751;28;20439;-62
2022/03/02 00:04:01;;;;;;;108.22;31.05;;;8.00;76.80;;;;;;5020391;28;20043;-62
2022/03/02 00:06:27;;;;;;;96.93;30.17;;;8.00;77.00;;;;;;5022546;28;20049;-61
2022/03/02 00:08:52;;;;;;;104.45;29.30;;;8.00;77.30;;;;;;5019339;28;20041;-62
2022/03/02 00:11:18;;;;;;;108.57;30.00;;;7.90;77.20;;;;;;5022010;28;20041;-61
2022/03/02 00:13:44;;;;;;;95.53;29.55;;;7.90;77.20;;;;;;5018354;28;20477;-61
2022/03/02 00:16:10;;;;;;;104.28;29.02;;;7.90;77.30;;;;;;4986901;28;20170;-61
2022/03/02 00:18:35;;;;;;;94.53;29.55;;;7.90;77.40;;;;;;5003688;28;20535;-61
2022/03/02 00:21:01;;;;;;;103.82;29.65;;;7.80;77.50;;;;;;5002947;28;20079;-62
2022/03/02 00:23:26;;;;;;;87.63;27.58;;;7.80;77.40;;;;;;5023985;28;20038;-62
2022/03/02 00:25:52;;;;;;;89.00;28.90;;;7.80;77.50;;;;;;5003634;28;20494;-61
2022/03/02 00:28:18;;;;;;;74.50;27.25;;;7.80;77.50;;;;;;5018266;28;20116;-62
2022/03/02 00:30:44;;;;;;;89.28;27.88;;;7.70;77.50;;;;;;5002585;28;20041;-62
2022/03/02 00:33:09;;;;;;;85.45;27.27;;;7.70;77.80;;;;;;5020946;28;20152;-62
2022/03/02 00:35:35;;;;;;;86.60;27.85;;;7.70;77.90;;;;;;5019392;28;20041;-63
2022/03/02 00:38:02;;;;;;;87.80;27.80;;;7.70;77.90;;;;;;5021176;28;20025;-63
2022/03/02 00:40:28;;;;;;;82.35;25.58;;;7.60;77.70;;;;;;5020307;28;20037;-60
2022/03/02 00:42:54;;;;;;;77.07;26.52;;;7.60;77.70;;;;;;5000518;28;20053;-60
2022/03/02 00:45:19;;;;;;;72.05;24.80;;;7.60;77.80;;;;;;5017456;28;20080;-63
2022/03/02 00:47:45;;;;;;;77.47;26.48;;;7.60;77.70;;;;;;5020421;28;20120;-62
2022/03/02 00:50:12;;;;;;;80.30;26.48;;;7.60;77.60;;;;;;5020785;28;20021;-60
2022/03/02 00:52:37;;;;;;;75.35;26.15;;;7.60;77.70;;;;;;5019586;28;20485;-60
2022/03/02 00:55:03;;;;;;;82.93;26.23;;;7.60;77.70;;;;;;5002809;28;20068;-62
2022/03/02 00:57:29;;;;;;;72.00;26.83;;;7.50;77.80;;;;;;5019147;28;20454;-62
2022/03/02 00:59:54;;;;;;;88.25;28.25;;;7.50;77.80;;;;;;5021303;28;20126;-60
2022/03/02 01:02:20;;;;;;;87.90;28.10;;;7.50;77.80;;;;;;5020907;28;20754;-63
2022/03/02 01:04:45;;;;;;;74.45;26.08;;;7.50;77.80;;;;;;5021219;28;20033;-60
2022/03/02 01:07:11;;;;;;;65.88;26.77;;;7.40;77.70;;;;;;5017795;28;20484;-61
2022/03/02 01:09:36;;;;;;;74.35;26.25;;;7.40;77.70;;;;;;5019109;28;20397;-62
2022/03/02 01:12:02;;;;;;;73.32;26.88;;;7.40;77.80;;;;;;5020364;28;20116;-63
2022/03/02 01:14:27;;;;;;;69.65;25.38;;;7.40;77.80;;;;;;5018926;28;20438;-62
2022/03/02 01:16:53;;;;;;;75.57;27.50;;;7.40;77.90;;;;;;5021633;28;20044;-62
2022/03/02 01:19:18;;;;;;;73.35;27.33;;;7.30;77.90;;;;;;5019186;28;20026;-62
2022/03/02 01:21:44;;;;;;;63.17;25.23;;;7.30;77.90;;;;;;5018723;28;20044;-62
2022/03/02 01:24:09;;;;;;;86.70;25.75;;;7.30;77.80;;;;;;5017697;28;20125;-60
2022/03/02 01:26:36;;;;;;;56.88;23.08;;;7.30;77.80;;;;;;4987643;28;20473;-60
2022/03/02 01:29:02;;;;;;;66.63;26.58;;;7.20;77.90;;;;;;5022804;28;20478;-61
2022/03/02 01:31:28;;;;;;;55.08;22.83;;;7.20;77.90;;;;;;5018763;28;20159;-62
2022/03/02 01:33:54;;;;;;;65.25;24.45;;;7.20;78.00;;;;;;5020020;28;20101;-62
2022/03/02 01:36:20;;;;;;;58.42;22.08;;;7.20;78.00;;;;;;5018529;28;20255;-62
2022/03/02 01:38:45;;;;;;;61.15;23.30;;;7.20;78.10;;;;;;5017974;28;20033;-62
2022/03/02 01:41:18;;;;;;;59.70;23.45;;;7.20;78.10;;;;;;5019675;28;20034;-60
2022/03/02 01:43:45;;;;;;;58.88;23.60;;;7.10;78.00;;;;;;5018925;28;20227;-62
2022/03/02 01:46:11;;;;;;;59.88;23.42;;;7.10;78.00;;;;;;5021735;28;20376;-62
2022/03/02 01:48:37;;;;;;;65.30;25.70;;;7.10;78.10;;;;;;5003992;28;20483;-61
2022/03/02 01:51:03;;;;;;;76.07;25.77;;;7.10;78.20;;;;;;5019184;28;20151;-61
2022/03/02 01:53:28;;;;;;;56.45;25.35;;;7.00;78.00;;;;;;5019375;28;20039;-61
2022/03/02 01:55:57;;;;;;;67.85;25.15;;;7.00;78.00;;;;;;5019086;28;20630;-62
2022/03/02 01:58:23;;;;;;;65.00;24.75;;;7.00;78.00;;;;;;5022282;28;20374;-62
2022/03/02 02:00:49;;;;;;;52.00;23.67;;;7.00;78.00;;;;;;5020802;28;20051;-63
2022/03/02 02:03:15;;;;;;;61.47;24.00;;;7.00;78.10;;;;;;5023637;28;20046;-61
2022/03/02 02:05:40;;;;;;;55.05;23.25;;;6.90;78.00;;;;;;5022460;28;20748;-62
2022/03/02 02:08:06;;;;;;;58.45;24.30;;;6.90;78.00;;;;;;5007847;28;20109;-61
2022/03/02 02:10:31;;;;;;;47.42;23.85;;;6.90;78.10;;;;;;5023083;28;20037;-62
2022/03/02 02:12:57;;;;;;;54.30;23.15;;;6.90;78.00;;;;;;5021915;28;20032;-62
2022/03/02 02:15:22;;;;;;;57.17;23.15;;;6.90;78.10;;;;;;5025234;28;20154;-61
2022/03/02 02:17:48;;;;;;;58.67;22.77;;;6.80;78.00;;;;;;5024921;28;20063;-63
2022/03/02 02:20:14;;;;;;;51.28;22.23;;;6.80;78.00;;;;;;5023156;28;20139;-62
2022/03/02 02:22:44;;;;;;;48.15;22.25;;;6.70;78.00;;;;;;5006171;28;20145;-60
2022/03/02 02:25:10;;;;;;;42.17;21.25;;;6.80;78.00;;;;;;5005982;28;20109;-61
2022/03/02 02:27:35;;;;;;;50.55;22.20;;;6.80;78.00;;;;;;5022059;28;20132;-62
2022/03/02 02:30:01;;;;;;;47.00;21.40;;;6.70;78.00;;;;;;5022051;28;20049;-61
2022/03/02 02:32:27;;;;;;;48.25;20.98;;;6.70;78.00;;;;;;5020975;28;20032;-61
2022/03/02 02:34:52;;;;;;;50.40;20.90;;;6.80;78.00;;;;;;4990149;28;20354;-60
2022/03/02 02:37:18;;;;;;;57.28;21.77;;;6.70;78.10;;;;;;5020960;28;20060;-60
2022/03/02 02:39:53;;;;;;;45.10;20.30;;;6.70;78.10;;;;;;5003253;28;20028;-62
2022/03/02 02:42:18;;;;;;;46.08;20.83;;;6.60;78.10;;;;;;5021909;28;20076;-62
2022/03/02 02:44:44;;;;;;;41.25;19.60;;;6.70;78.00;;;;;;5006569;28;20304;-62
2022/03/02 02:47:11;;;;;;;51.28;19.92;;;6.60;78.00;;;;;;5023819;28;20447;-63
2022/03/02 02:49:36;;;;;;;39.65;20.40;;;6.60;78.10;;;;;;5005206;28;20025;-60
2022/03/02 02:52:02;;;;;;;51.45;20.35;;;6.60;78.20;;;;;;5005832;28;20732;-62
2022/03/02 02:54:27;;;;;;;44.03;20.02;;;6.60;78.30;;;;;;5020530;28;20041;-61
2022/03/02 02:56:53;;;;;;;42.20;20.88;;;6.60;78.30;;;;;;5019158;28;20143;-61
2022/03/02 02:59:18;;;;;;;44.60;19.67;;;6.50;78.20;;;;;;5023244;28;20022;-61
2022/03/02 03:01:44;;;;;;;45.47;20.60;;;6.50;78.10;;;;;;5019581;28;20108;-61
2022/03/02 03:04:10;;;;;;;39.85;20.30;;;6.50;78.10;;;;;;5020641;28;20358;-62
2022/03/02 03:06:35;;;;;;;46.25;21.52;;;6.50;78.20;;;;;;5020986;28;20507;-60
2022/03/02 03:09:01;;;;;;;39.42;19.40;;;6.50;78.40;;;;;;5022412;28;20391;-63
2022/03/02 03:11:26;;;;;;;42.45;20.42;;;6.50;78.40;;;;;;5004868;28;20037;-62
2022/03/02 03:13:52;;;;;;;43.95;19.77;;;6.50;78.40;;;;;;5004875;28;20037;-60
2022/03/02 03:16:17;;;;;;;41.28;19.67;;;6.40;78.40;;;;;;5022568;28;20025;-61
2022/03/02 03:18:43;;;;;;;44.60;19.17;;;6.40;78.40;;;;;;5023301;28;20022;-60
2022/03/02 03:21:08;;;;;;;47.25;19.80;;;6.30;78.40;;;;;;5019587;28;20113;-61
2022/03/02 03:23:34;;;;;;;39.00;19.48;;;6.40;78.40;;;;;;5020630;28;20045;-61
2022/03/02 03:26:00;;;;;;;46.58;20.40;;;6.30;78.40;;;;;;5023943;28;20052;-61
2022/03/02 03:28:25;;;;;;;40.60;19.48;;;6.30;78.50;;;;;;5020042;28;20025;-61
2022/03/02 03:30:51;;;;;;;41.95;20.70;;;6.30;78.60;;;;;;5021337;28;20458;-61
2022/03/02 03:33:16;;;;;;;41.03;20.30;;;6.30;78.80;;;;;;5023098;28;20040;-62
2022/03/02 03:35:42;;;;;;;45.35;20.08;;;6.30;78.60;;;;;;5021196;28;20030;-63
2022/03/02 03:38:07;;;;;;;42.90;20.88;;;6.20;78.70;;;;;;5021675;28;20477;-62
2022/03/02 03:40:33;;;;;;;42.30;20.40;;;6.20;78.60;;;;;;5005494;28;20025;-60
2022/03/02 03:42:58;;;;;;;37.45;20.60;;;6.20;78.70;;;;;;5021786;28;20069;-61
2022/03/02 03:45:24;;;;;;;37.67;20.80;;;6.20;78.60;;;;;;4987782;28;20112;-61
2022/03/02 03:47:49;;;;;;;39.63;19.90;;;6.20;78.60;;;;;;5022811;28;20045;-61
2022/03/02 03:50:15;;;;;;;40.40;19.65;;;6.20;78.50;;;;;;5020388;28;20109;-61
2022/03/02 03:52:41;;;;;;;34.78;18.63;;;6.20;78.60;;;;;;5023268;28;20065;-62
2022/03/02 03:55:07;;;;;;;36.80;19.23;;;6.10;78.50;;;;;;5003168;28;20090;-62
2022/03/02 03:57:32;;;;;;;40.20;19.98;;;6.10;78.60;;;;;;5000493;28;20037;-62
2022/03/02 03:59:58;;;;;;;33.55;18.45;;;6.10;78.60;;;;;;5021020;28;20936;-62
2022/03/02 04:02:23;;;;;;;33.85;18.40;;;6.10;78.60;;;;;;5020326;28;20476;-62
2022/03/02 04:04:49;;;;;;;34.40;18.55;;;6.10;78.60;;;;;;5021266;28;20030;-63
2022/03/02 04:07:14;;;;;;;34.90;17.30;;;6.10;78.60;;;;;;5022254;28;20374;-62
2022/03/02 04:09:40;;;;;;;38.60;18.70;;;6.00;78.70;;;;;;4987359;28;20025;-61
2022/03/02 04:12:06;;;;;;;31.38;17.77;;;6.00;78.60;;;;;;5019907;28;20056;-61
2022/03/02 04:14:31;;;;;;;37.08;17.83;;;6.00;78.70;;;;;;5016883;28;20436;-60
2022/03/02 04:16:57;;;;;;;29.85;18.50;;;6.00;78.80;;;;;;5018240;28;20052;-62
2022/03/02 04:19:22;;;;;;;33.40;17.83;;;6.00;78.80;;;;;;5021775;28;20021;-61
2022/03/02 04:21:48;;;;;;;31.67;18.40;;;6.00;78.80;;;;;;5020160;28;20310;-61
2022/03/02 04:24:13;;;;;;;29.88;17.55;;;6.00;78.80;;;;;;5020216;28;20096;-63
2022/03/02 04:26:39;;;;;;;32.67;17.60;;;5.90;78.70;;;;;;5020156;28;20092;-62
2022/03/02 04:29:04;;;;;;;34.88;17.85;;;5.90;78.70;;;;;;5020031;28;20065;-60
2022/03/02 04:31:30;;;;;;;30.13;18.35;;;5.90;78.70;;;;;;5020352;28;20620;-63
2022/03/02 04:33:55;;;;;;;35.15;18.35;;;5.90;78.80;;;;;;5021350;28;20041;-60
2022/03/02 04:36:21;;;;;;;28.70;17.27;;;5.90;78.70;;;;;;5020842;28;20110;-61
2022/03/02 04:38:46;;;;;;;25.73;16.90;;;5.90;78.60;;;;;;5003284;28;20116;-61
2022/03/02 04:41:12;;;;;;;36.15;17.35;;;5.90;78.60;;;;;;5018750;28;20050;-62
2022/03/02 04:43:38;;;;;;;26.77;15.55;;;5.80;78.50;;;;;;5018558;28;20029;-61
2022/03/02 04:46:03;;;;;;;31.23;17.25;;;5.90;78.60;;;;;;5022245;28;20030;-61
2022/03/02 04:48:29;;;;;;;29.55;16.33;;;5.90;78.60;;;;;;5021860;28;20033;-63
2022/03/02 04:50:55;;;;;;;31.35;16.73;;;5.80;78.60;;;;;;5019073;28;20100;-63
2022/03/02 04:53:23;;;;;;;35.10;17.25;;;5.80;78.70;;;;;;5020275;28;20065;-63
2022/03/02 04:55:49;;;;;;;27.92;16.75;;;5.80;78.70;;;;;;5004171;28;20021;-61
2022/03/02 04:58:14;;;;;;;27.52;16.13;;;5.70;78.60;;;;;;5021812;28;20037;-62
2022/03/02 05:00:40;;;;;;;26.45;15.90;;;5.70;78.70;;;;;;5002614;28;20036;-62
2022/03/02 05:03:06;;;;;;;23.45;15.85;;;5.70;78.70;;;;;;5021450;28;20222;-62
2022/03/02 05:05:33;;;;;;;25.83;16.30;;;5.70;78.80;;;;;;5002330;28;20128;-64
2022/03/02 05:07:59;;;;;;;26.00;15.70;;;5.70;78.80;;;;;;5002481;28;20466;-63
2022/03/02 05:10:24;;;;;;;30.10;16.80;;;5.70;78.70;;;;;;5019197;28;20079;-63
2022/03/02 05:12:50;;;;;;;26.85;15.60;;;5.70;78.80;;;;;;5019803;28;20040;-62
2022/03/02 05:15:16;;;;;;;23.75;15.15;;;5.70;78.90;;;;;;5018972;28;20414;-61
2022/03/02 05:17:42;;;;;;;28.48;16.27;;;5.60;78.80;;;;;;5002256;28;20033;-62
2022/03/02 05:20:08;;;;;;;30.50;15.60;;;5.60;78.80;;;;;;5018222;28;20071;-62
2022/03/02 05:22:34;;;;;;;24.95;15.20;;;5.60;78.80;;;;;;5019199;28;20022;-60
2022/03/02 05:24:59;;;;;;;28.98;16.17;;;5.60;78.90;;;;;;5003705;28;20039;-60
2022/03/02 05:27:25;;;;;;;28.08;15.13;;;5.60;78.90;;;;;;5001925;28;20140;-62
2022/03/02 05:29:50;;;;;;;37.45;16.48;;;5.60;78.90;;;;;;5018630;28;20518;-62
2022/03/02 05:32:16;;;;;;;32.90;17.05;;;5.50;78.80;;;;;;5017670;28;20036;-60
2022/03/02 05:34:42;;;;;;;37.08;16.52;;;5.50;78.90;;;;;;5019372;28;20052;-63
2022/03/02 05:37:07;;;;;;;43.28;16.85;;;5.50;79.00;;;;;;5021482;28;20099;-62
2022/03/02 05:39:33;;;;;;;31.70;16.75;;;5.50;78.90;;;;;;5021223;28;20036;-60
2022/03/02 05:41:58;;;;;;;39.05;17.13;;;5.50;78.90;;;;;;5020731;28;20059;-62
2022/03/02 05:44:25;;;;;;;36.20;16.88;;;5.50;78.80;;;;;;5019596;28;20041;-62
2022/03/02 05:46:50;;;;;;;41.90;16.77;;;5.50;78.90;;;;;;5019040;28;20068;-60
2022/03/02 05:49:16;;;;;;;39.50;17.00;;;5.50;78.80;;;;;;5020156;28;20038;-60
2022/03/02 05:51:41;;;;;;;32.35;16.30;;;5.50;78.80;;;;;;5001406;28;20042;-61
2022/03/02 05:54:10;;;;;;;37.47;15.95;;;5.50;78.90;;;;;;5020543;28;20052;-60
2022/03/02 05:56:37;;;;;;;33.08;17.02;;;5.50;78.90;;;;;;5018850;28;20092;-62
2022/03/02 05:59:04;;;;;;;36.00;16.33;;;5.50;78.90;;;;;;5017553;28;20442;-62
2022/03/02 06:01:29;;;;;;;28.90;16.55;;;5.40;79.00;;;;;;5019363;28;20184;-62
2022/03/02 06:03:55;;;;;;;36.67;15.85;;;5.40;79.00;;;;;;5020803;28;20200;-60
2022/03/02 06:06:20;;;;;;;37.38;16.33;;;5.40;79.10;;;;;;5018717;28;20028;-61
2022/03/02 06:08:46;;;;;;;30.55;16.25;;;5.30;79.10;;;;;;5000131;28;20144;-61
2022/03/02 06:11:11;;;;;;;30.88;15.82;;;5.30;79.10;;;;;;5019500;28;20071;-61
2022/03/02 06:13:37;;;;;;;30.80;15.48;;;5.30;79.10;;;;;;5018380;28;20026;-61
2022/03/02 06:16:03;;;;;;;29.38;15.43;;;5.30;79.10;;;;;;5019476;28;20029;-61
2022/03/02 06:18:29;;;;;;;33.80;15.48;;;5.30;79.20;;;;;;5003421;28;20477;-61
2022/03/02 06:21:00;;;;;;;34.40;15.60;;;5.30;79.30;;;;;;5018306;28;20061;-62
2022/03/02 06:23:27;;;;;;;38.17;15.13;;;5.30;79.30;;;;;;5016097;28;20042;-60
2022/03/02 06:25:53;;;;;;;23.08;14.95;;;5.30;79.30;;;;;;5017291;28;20136;-62
2022/03/02 06:28:18;;;;;;;30.08;16.02;;;5.30;79.30;;;;;;5002555;28;20121;-61
2022/03/02 06:30:44;;;;;;;25.35;15.77;;;5.30;79.30;;;;;;5017828;28;20049;-61
2022/03/02 06:33:09;;;;;;;36.95;16.15;;;5.30;79.40;;;;;;5019284;28;20284;-60
2022/03/02 06:35:35;;;;;;;27.80;14.90;;;5.20;79.40;;;;;;5014601;28;20037;-63
2022/03/02 06:38:01;;;;;;;33.17;15.90;;;5.20;79.50;;;;;;5019483;28;20037;-63
2022/03/02 06:40:26;;;;;;;35.28;15.77;;;5.20;79.80;;;;;;5018558;28;20288;-62
2022/03/02 06:43:02;;;;;;;26.77;15.75;;;5.20;80.30;;;;;;5019314;28;20169;-63
2022/03/02 06:45:47;;;;;;;29.98;15.75;;;5.20;79.80;;;;;;5021266;28;20499;-63
2022/03/02 06:48:16;;;;;;;26.42;15.27;;;5.20;79.80;;;;;;5021092;28;20116;-63
2022/03/02 06:50:44;;;;;;;28.92;16.13;;;5.20;79.80;;;;;;5016672;28;20033;-63
2022/03/02 06:53:11;;;;;;;29.23;16.05;;;5.20;80.00;;;;;;5023764;28;20076;-60
2022/03/02 06:55:37;;;;;;;30.38;15.82;;;5.20;80.10;;;;;;5005037;28;20025;-62
2022/03/02 06:58:03;;;;;;;30.08;15.57;;;5.20;80.20;;;;;;5002409;28;20110;-62
2022/03/02 07:00:29;;;;;;;26.25;14.82;;;5.20;80.30;;;;;;5021572;28;20040;-61
2022/03/02 07:03:18;;;;;;;28.73;14.45;;;5.20;80.30;;;;;;4988981;28;20059;-62
2022/03/02 07:05:44;;;;;;;35.22;16.13;;;5.10;80.30;;;;;;4996780;28;20449;-60
2022/03/02 07:08:09;;;;;;;40.38;16.27;;;5.10;80.30;;;;;;5020700;28;20087;-63
2022/03/02 07:10:36;;;;;;;39.42;15.70;;;5.10;80.40;;;;;;5005162;28;20613;-63
2022/03/02 07:13:02;;;;;;;29.75;15.65;;;5.10;80.40;;;;;;5021471;28;20028;-61
2022/03/02 07:15:29;;;;;;;40.75;15.45;;;5.10;80.40;;;;;;5019119;28;20029;-61
2022/03/02 07:17:55;;;;;;;34.42;16.23;;;5.10;80.30;;;;;;5020222;28;20037;-61
2022/03/02 07:20:20;;;;;;;28.40;16.10;;;5.10;80.40;;;;;;5004251;28;20388;-61
2022/03/02 07:22:52;;;;;;;38.33;14.90;;;5.10;80.30;;;;;;5019129;28;20033;-61
2022/03/02 07:25:47;;;;;;;36.85;15.63;;;5.10;80.30;;;;;;5004057;28;20033;-61
2022/03/02 07:28:14;;;;;;;37.38;16.02;;;5.10;80.30;;;;;;5011348;28;20053;-61
2022/03/02 07:30:39;;;;;;;33.08;15.98;;;5.10;80.30;;;;;;5004536;28;20041;-60
2022/03/02 07:33:05;;;;;;;39.45;16.33;;;5.10;80.20;;;;;;5002921;28;20041;-61
2022/03/02 07:35:35;;;;;;;41.90;16.23;;;5.10;80.10;;;;;;5022295;28;20128;-63
2022/03/02 07:38:01;;;;;;;35.25;15.52;;;5.10;80.10;;;;;;5019717;28;20040;-61
2022/03/02 07:40:26;;;;;;;28.77;16.00;;;5.10;80.10;;;;;;5017572;28;20034;-61
2022/03/02 07:42:52;;;;;;;41.72;17.20;;;5.10;80.10;;;;;;5019426;28;20041;-63
2022/03/02 07:45:17;;;;;;;37.30;16.90;;;5.10;80.10;;;;;;5021026;28;20026;-60
2022/03/02 07:47:43;;;;;;;36.53;16.02;;;5.10;80.00;;;;;;5019913;28;20238;-61
2022/03/02 07:50:10;;;;;;;47.83;17.77;;;5.10;80.00;;;;;;5002105;28;20462;-63
2022/03/02 07:52:36;;;;;;;35.78;16.85;;;5.10;80.00;;;;;;5002587;28;20123;-62
2022/03/02 07:55:07;;;;;;;53.42;17.17;;;5.10;80.60;;;;;;4996128;28;20041;-61
2022/03/02 07:57:32;;;;;;;44.22;16.98;;;5.10;80.00;;;;;;4993989;28;20502;-63
2022/03/02 07:59:58;;;;;;;39.83;16.92;;;5.10;80.00;;;;;;5001144;28;20116;-61
2022/03/02 08:02:24;;;;;;;38.22;16.25;;;5.10;80.00;;;;;;4996628;28;20037;-60
2022/03/02 08:04:55;;;;;;;42.75;16.73;;;5.10;80.10;;;;;;5000744;28;20719;-63
2022/03/02 08:07:21;;;;;;;35.03;17.13;;;5.10;80.10;;;;;;5004173;28;20032;-62
2022/03/02 08:09:46;;;;;;;45.50;17.17;;;5.00;80.00;;;;;;4994438;28;20045;-60
2022/03/02 08:12:12;;;;;;;34.67;16.60;;;5.00;80.00;;;;;;5020248;28;20481;-62
2022/03/02 08:14:38;;;;;;;45.80;16.75;;;5.00;79.90;;;;;;4999600;28;20072;-61
2022/03/02 08:17:04;;;;;;;42.60;16.67;;;5.00;79.80;;;;;;5010155;28;20053;-62
2022/03/02 08:19:30;;;;;;;43.08;15.30;;;5.00;79.80;;;;;;5017490;28;20781;-61
2022/03/02 08:22:09;;;;;;;30.05;15.95;;;5.10;79.90;;;;;;5015232;28;20393;-63
2022/03/02 08:24:35;;;;;;;26.05;14.45;;;5.10;79.70;;;;;;5018476;28;20064;-61
2022/03/02 08:27:02;;;;;;;36.10;15.93;;;5.10;79.70;;;;;;5001434;28;20163;-63
2022/03/02 08:29:30;;;;;;;35.55;15.65;;;5.10;79.60;;;;;;4999299;28;20055;-62
2022/03/02 08:31:58;;;;;;;35.13;15.70;;;5.10;79.60;;;;;;5014870;28;20045;-62
2022/03/02 08:34:24;;;;;;;30.55;16.05;;;5.10;79.60;;;;;;5012926;28;20041;-62
2022/03/02 08:36:50;;;;;;;44.10;16.92;;;5.10;79.70;;;;;;5013207;28;20134;-63
2022/03/02 08:39:15;;;;;;;53.58;18.13;;;5.10;79.80;;;;;;5016993;28;20406;-61
2022/03/02 08:41:41;;;;;;;33.22;15.48;;;5.10;79.80;;;;;;5020337;28;20488;-62
2022/03/02 08:44:07;;;;;;;39.72;16.45;;;5.10;79.60;;;;;;5001594;28;20577;-60
2022/03/02 08:46:33;;;;;;;35.30;14.95;;;5.10;79.60;;;;;;4996010;28;20037;-61
2022/03/02 08:48:59;;;;;;;33.05;16.13;;;5.20;79.50;;;;;;5015400;28;20048;-62
2022/03/02 08:51:25;;;;;;;39.17;15.85;;;5.10;79.50;;;;;;5010930;28;20120;-62
2022/03/02 08:53:53;;;;;;;36.65;15.75;;;5.20;79.50;;;;;;4998736;28;20034;-61
2022/03/02 08:56:18;;;;;;;27.95;14.85;;;5.10;79.50;;;;;;5016404;28;21056;-62
2022/03/02 08:58:44;;;;;;;49.15;16.70;;;5.10;79.50;;;;;;5014091;28;20493;-62
2022/03/02 09:01:11;;;;;;;29.67;15.65;;;5.20;80.60;;;;;;5011664;28;20112;-61
2022/03/02 09:03:37;;;;;;;36.03;14.88;;;5.20;80.00;;;;;;5015400;28;20938;-62
2022/03/02 09:06:03;;;;;;;38.92;17.63;;;5.20;79.80;;;;;;5001345;28;20183;-62
2022/03/02 09:08:30;;;;;;;34.08;16.15;;;5.20;79.70;;;;;;5010340;28;20575;-62
2022/03/02 09:10:56;;;;;;;39.67;17.20;;;5.20;79.70;;;;;;5012665;28;20041;-63
2022/03/02 09:13:21;;;;;;;52.25;18.02;;;5.20;79.80;;;;;;5013561;28;20053;-61
2022/03/02 09:15:47;;;;;;;42.08;15.90;;;5.30;80.00;;;;;;4998474;28;20317;-61
2022/03/02 09:18:12;;;;;;;35.67;16.40;;;5.30;79.80;;;;;;5010209;28;20546;-61
2022/03/02 09:20:38;;;;;;;38.53;16.40;;;5.30;79.90;;;;;;5012593;28;20621;-63
2022/03/02 09:23:04;;;;;;;40.45;17.27;;;5.30;80.00;;;;;;5002016;28;20029;-62
2022/03/02 09:25:32;;;;;;;53.70;17.38;;;5.40;80.00;;;;;;5015303;28;20393;-60
2022/03/02 09:27:58;;;;;;;49.15;16.48;;;5.40;80.00;;;;;;5016953;28;20041;-61
2022/03/02 09:30:24;;;;;;;49.67;17.13;;;5.40;80.10;;;;;;5018328;28;20033;-61
2022/03/02 09:32:52;;;;;;;32.35;16.83;;;5.40;80.20;;;;;;5017629;28;20116;-61
2022/03/02 09:35:17;;;;;;;46.38;18.27;;;5.40;80.10;;;;;;5008927;28;20093;-61
2022/03/02 09:37:48;;;;;;;41.00;16.58;;;5.50;80.10;;;;;;5012967;28;20021;-62
2022/03/02 09:40:28;;;;;;;44.83;18.02;;;5.50;80.10;;;;;;4996789;28;20077;-61
2022/03/02 09:42:58;;;;;;;45.55;16.73;;;5.50;80.00;;;;;;5012791;28;20056;-61
2022/03/02 09:45:26;;;;;;;39.60;17.20;;;5.60;79.90;;;;;;4999812;28;20169;-61
2022/03/02 09:48:03;;;;;;;45.08;17.08;;;5.60;79.90;;;;;;5000160;28;20029;-62
2022/03/02 09:50:34;;;;;;;43.47;17.10;;;5.60;79.80;;;;;;5014651;28;20034;-61
2022/03/02 09:53:12;;;;;;;40.78;16.95;;;5.60;80.00;;;;;;5015711;28;20505;-61
2022/03/02 09:55:38;;;;;;;40.25;16.73;;;5.60;80.00;;;;;;5012359;28;20042;-61
2022/03/02 09:58:05;;;;;;;48.13;16.17;;;5.70;80.10;;;;;;4997151;28;20308;-62
2022/03/02 10:00:31;;;;;;;45.10;16.42;;;5.70;80.10;;;;;;5009913;28;20057;-62
2022/03/02 10:02:57;;;;;;;42.03;16.55;;;5.70;80.70;;;;;;5016089;28;20333;-62
2022/03/02 10:05:28;;;;;;;38.63;17.05;;;5.70;80.00;;;;;;5010636;28;20105;-62
2022/03/02 10:08:10;;;;;;;51.45;17.02;;;5.70;79.90;;;;;;4998601;28;20034;-61
2022/03/02 10:10:39;;;;;;;42.88;15.98;;;5.80;79.90;;;;;;5012019;28;20264;-62
2022/03/02 10:13:16;;;;;;;43.03;17.45;;;5.80;79.90;;;;;;5013837;28;20123;-62
2022/03/02 10:15:42;;;;;;;51.33;17.00;;;5.80;79.80;;;;;;4982362;28;20018;-61
2022/03/02 10:18:11;;;;;;;46.50;16.60;;;5.90;79.80;;;;;;5016156;28;20036;-62
2022/03/02 10:20:37;;;;;;;75.05;17.98;;;5.90;79.60;;;;;;4998012;28;20033;-60
2022/03/02 10:23:32;;;;;;;43.30;17.20;;;5.90;79.60;;;;;;5003004;28;20044;-62
2022/03/02 10:26:02;;;;;;;59.25;18.27;;;6.00;79.70;;;;;;5019331;28;20030;-62
2022/03/02 10:29:05;;;;;;;45.47;17.85;;;6.00;79.60;;;;;;5017189;28;20045;-61
2022/03/02 10:31:41;;;;;;;53.50;16.73;;;6.00;79.70;;;;;;5014296;28;20065;-61
2022/03/02 10:34:23;;;;;;;56.35;17.75;;;6.00;79.80;;;;;;5017402;28;20504;-61
2022/03/02 10:36:50;;;;;;;56.65;19.40;;;6.10;79.90;;;;;;5018607;28;20034;-62
2022/03/02 10:39:38;;;;;;;56.47;18.73;;;6.10;80.00;;;;;;4998433;28;20504;-62
2022/03/02 10:42:04;;;;;;;40.85;17.50;;;6.10;80.10;;;;;;5019668;28;20092;-59
2022/03/02 10:44:32;;;;;;;94.35;23.42;;;6.20;80.20;;;;;;5016761;28;20108;-61
2022/03/02 10:47:02;;;;;;;93.15;22.27;;;6.30;80.20;;;;;;5015898;28;20021;-61
2022/03/02 10:49:28;;;;;;;118.88;23.92;;;6.30;80.10;;;;;;4998485;28;20308;-60
2022/03/02 10:51:54;;;;;;;63.17;18.80;;;6.40;80.20;;;;;;4982018;28;20037;-61
2022/03/02 10:54:24;;;;;;;64.05;19.67;;;6.50;80.10;;;;;;5020959;28;20017;-60
2022/03/02 10:56:53;;;;;;;131.88;23.58;;;6.50;80.10;;;;;;5020117;28;20033;-61
2022/03/02 10:59:21;;;;;;;109.28;21.63;;;6.60;79.80;;;;;;5004434;28;20025;-62
2022/03/02 11:01:47;;;;;;;104.72;23.08;;;6.70;79.80;;;;;;5024660;28;20120;-62
2022/03/02 11:04:13;;;;;;;82.25;21.48;;;6.70;79.60;;;;;;5006784;28;20136;-65
2022/03/02 11:06:39;;;;;;;83.35;20.63;;;6.80;79.50;;;;;;5003161;28;20033;-62
2022/03/02 11:09:05;;;;;;;72.82;20.02;;;6.80;79.40;;;;;;5004348;28;20034;-63
2022/03/02 11:11:35;;;;;;;72.10;20.83;;;6.80;79.30;;;;;;5014352;28;21495;-62
2022/03/02 11:14:02;;;;;;;131.90;26.65;;;6.90;79.30;;;;;;5007733;28;20849;-61
2022/03/02 11:16:27;;;;;;;169.38;31.25;;;6.90;79.30;;;;;;5021382;28;20130;-61
2022/03/02 11:18:53;;;;;;;162.07;27.60;;;7.00;79.40;;;;;;5005956;28;20354;-61
2022/03/02 11:21:21;;;;;;;71.80;22.50;;;7.00;79.40;;;;;;5022808;28;20083;-60
2022/03/02 11:24:00;;;;;;;87.57;21.35;;;7.10;79.50;;;;;;5017437;28;20484;-63
2022/03/02 11:26:28;;;;;;;140.80;26.42;;;7.10;79.30;;;;;;5023946;28;20120;-62
2022/03/02 11:29:01;;;;;;;97.80;22.33;;;7.10;79.20;;;;;;5004390;28;20048;-60
2022/03/02 11:31:30;;;;;;;102.32;21.05;;;7.20;79.20;;;;;;5016644;28;20045;-61
2022/03/02 11:34:08;;;;;;;76.45;20.30;;;7.20;78.90;;;;;;5020672;28;20496;-62
2022/03/02 11:36:35;;;;;;;82.68;19.25;;;7.30;78.70;;;;;;5025297;28;20109;-62
2022/03/02 11:39:00;;;;;;;93.30;21.20;;;7.40;78.90;;;;;;5018170;28;20066;-60
2022/03/02 11:41:36;;;;;;;88.93;21.35;;;7.50;78.80;;;;;;5015928;28;20148;-60
2022/03/02 11:44:24;;;;;;;79.20;21.25;;;7.50;78.90;;;;;;5018036;28;20022;-61
2022/03/02 11:46:50;;;;;;;69.95;20.73;;;7.50;78.80;;;;;;5012702;28;20060;-62
2022/03/02 11:49:16;;;;;;;105.63;23.05;;;7.60;79.00;;;;;;5016462;28;20041;-62
2022/03/02 11:51:41;;;;;;;70.93;21.00;;;7.60;78.80;;;;;;5017200;28;20036;-62
2022/03/02 11:54:09;;;;;;;68.97;20.25;;;7.70;78.80;;;;;;5001781;28;20029;-62
2022/03/02 11:56:34;;;;;;;67.80;20.05;;;7.70;78.60;;;;;;5019546;28;20044;-61
2022/03/02 11:59:10;;;;;;;79.40;20.35;;;7.80;78.50;;;;;;4983284;28;20026;-65
2022/03/02 12:01:50;;;;;;;70.45;21.00;;;7.80;78.60;;;;;;4998264;28;20092;-60
2022/03/02 12:04:16;;;;;;;59.45;19.10;;;7.90;78.40;;;;;;5003708;28;20979;-62
2022/03/02 12:06:52;;;;;;;74.07;19.77;;;7.90;78.60;;;;;;4995672;28;20049;-62
2022/03/02 12:09:28;;;;;;;68.68;17.98;;;8.00;79.20;;;;;;5015999;28;20045;-63
2022/03/02 12:12:11;;;;;;;60.35;19.63;;;8.10;78.40;;;;;;5001992;28;20041;-61
2022/03/02 12:14:51;;;;;;;65.63;19.15;;;8.10;78.10;;;;;;5016219;28;20103;-63
2022/03/02 12:17:24;;;;;;;68.80;19.25;;;8.20;78.20;;;;;;4997331;28;20073;-62
2022/03/02 12:19:58;;;;;;;68.35;18.23;;;8.20;78.70;;;;;;5013225;28;20109;-63
2022/03/02 12:22:29;;;;;;;62.47;18.45;;;8.30;78.70;;;;;;5029941;28;20025;-64
2022/03/02 12:24:55;;;;;;;48.10;17.95;;;8.30;78.40;;;;;;5007709;28;20044;-63
2022/03/02 12:27:20;;;;;;;42.05;18.40;;;8.30;78.50;;;;;;5013782;28;20029;-62
2022/03/02 12:29:52;;;;;;;51.80;18.48;;;8.40;78.30;;;;;;5018626;28;20041;-62
2022/03/02 12:32:18;;;;;;;41.97;17.20;;;8.50;78.20;;;;;;5013116;28;20164;-65
2022/03/02 12:34:47;;;;;;;50.08;17.75;;;8.50;78.60;;;;;;5004647;28;20037;-64
2022/03/02 12:37:13;;;;;;;59.17;18.73;;;8.50;79.00;;;;;;4998334;28;20124;-62